createdAt,value
2018-09-10T00:00:03.093Z,5.73
2018-09-10T00:02:31.487Z,7.33
2018-09-10T00:04:59.898Z,8.13
2018-09-10T00:07:28.266Z,7.73
2018-09-10T00:09:56.646Z,7.17
2018-09-10T00:12:25.047Z,6.20
2018-09-10T00:14:53.418Z,7.23
2018-09-10T00:17:21.809Z,6.47
2018-09-10T00:19:50.190Z,6.13
2018-09-10T00:22:18.639Z,4.40
2018-09-10T00:24:47.001Z,5.60
2018-09-10T00:27:15.395Z,6.30
2018-09-10T00:29:43.753Z,4.63
2018-09-10T00:32:12.139Z,4.90
2018-09-10T00:34:40.510Z,4.97
2018-09-10T00:37:08.898Z,5.70
2018-09-10T00:39:37.274Z,5.57
2018-09-10T00:42:05.667Z,5.13
2018-09-10T00:44:34.038Z,5.70
2018-09-10T00:47:02.420Z,6.13
2018-09-10T00:49:30.787Z,5.80
2018-09-10T00:51:59.178Z,6.00
2018-09-10T00:54:27.559Z,4.60
2018-09-10T00:56:55.955Z,5.30
2018-09-10T00:59:24.322Z,5.20
2018-09-10T01:01:52.716Z,4.77
2018-09-10T01:04:21.089Z,5.27
2018-09-10T01:06:49.479Z,5.00
2018-09-10T01:09:17.948Z,5.07
2018-09-10T01:11:46.430Z,5.50
2018-09-10T01:14:14.795Z,5.10
2018-09-10T01:16:43.194Z,6.00
2018-09-10T01:19:11.558Z,5.40
2018-09-10T01:21:40.051Z,5.87
2018-09-10T01:24:08.417Z,5.10
2018-09-10T01:26:36.809Z,4.87
2018-09-10T01:29:05.175Z,4.97
2018-09-10T01:31:33.561Z,4.97
2018-09-10T01:34:07.270Z,5.93
2018-09-10T01:36:35.662Z,5.30
2018-09-10T01:39:05.175Z,5.30
2018-09-10T01:41:33.575Z,5.73
2018-09-10T01:44:01.948Z,5.30
2018-09-10T01:46:30.366Z,5.50
2018-09-10T01:48:58.722Z,6.10
2018-09-10T01:51:27.107Z,6.10
2018-09-10T01:53:55.474Z,6.23
2018-09-10T01:56:23.866Z,5.60
2018-09-10T01:58:52.234Z,6.07
2018-09-10T02:01:20.618Z,5.60
2018-09-10T02:03:48.987Z,5.70
2018-09-10T02:06:17.371Z,5.63
2018-09-10T02:08:45.733Z,6.23
2018-09-10T02:11:14.129Z,5.47
2018-09-10T02:13:42.493Z,5.60
2018-09-10T02:16:14.811Z,5.60
2018-09-10T02:18:43.883Z,5.77
2018-09-10T02:21:12.265Z,5.40
2018-09-10T02:23:40.661Z,5.43
2018-09-10T02:26:09.048Z,5.53
2018-09-10T02:28:37.431Z,5.50
2018-09-10T02:31:05.925Z,4.80
2018-09-10T02:33:34.312Z,4.57
2018-09-10T02:36:02.698Z,5.10
2018-09-10T02:38:31.119Z,5.47
2018-09-10T02:40:59.498Z,4.97
2018-09-10T02:43:27.888Z,5.37
2018-09-10T02:45:56.430Z,4.23
2018-09-10T02:48:24.823Z,5.17
2018-09-10T02:50:53.294Z,4.80
2018-09-10T02:53:21.683Z,4.70
2018-09-10T02:55:50.163Z,4.80
2018-09-10T02:58:18.550Z,5.00
2018-09-10T03:00:46.913Z,4.67
2018-09-10T03:03:15.299Z,5.03
2018-09-10T03:05:45.297Z,5.00
2018-09-10T03:08:13.681Z,4.87
2018-09-10T03:10:42.044Z,4.57
2018-09-10T03:13:10.442Z,5.17
2018-09-10T03:15:38.944Z,5.60
2018-09-10T03:18:07.380Z,5.90
2018-09-10T03:20:35.728Z,5.30
2018-09-10T03:23:04.138Z,5.97
2018-09-10T03:25:32.523Z,6.00
2018-09-10T03:28:00.926Z,5.30
2018-09-10T03:30:29.296Z,5.40
2018-09-10T03:32:57.688Z,5.17
2018-09-10T03:35:26.058Z,4.50
2018-09-10T03:37:54.462Z,5.40
2018-09-10T03:40:22.829Z,4.60
2018-09-10T03:42:51.330Z,5.20
2018-09-10T03:45:19.690Z,5.30
2018-09-10T03:47:48.079Z,4.60
2018-09-10T03:50:16.450Z,5.30
2018-09-10T03:52:44.834Z,5.07
2018-09-10T03:55:13.207Z,4.97
2018-09-10T03:57:41.597Z,5.67
2018-09-10T04:00:09.971Z,5.37
2018-09-10T04:02:38.359Z,6.00
2018-09-10T04:05:07.578Z,5.20
2018-09-10T04:07:35.957Z,5.70
2018-09-10T04:10:04.322Z,5.30
2018-09-10T04:12:32.714Z,5.60
2018-09-10T04:15:01.119Z,6.27
2018-09-10T04:17:29.491Z,5.40
2018-09-10T04:20:03.270Z,5.60
2018-09-10T04:22:31.654Z,5.40
2018-09-10T04:25:00.038Z,5.70
2018-09-10T04:27:28.402Z,6.20
2018-09-10T04:29:56.794Z,5.43
2018-09-10T04:32:25.275Z,6.30
2018-09-10T04:34:53.854Z,5.70
2018-09-10T04:37:22.246Z,6.20
2018-09-10T04:39:50.640Z,5.80
2018-09-10T04:42:19.172Z,5.30
2018-09-10T04:44:47.426Z,5.63
2018-09-10T04:47:15.785Z,5.43
2018-09-10T04:49:44.182Z,6.67
2018-09-10T04:52:12.557Z,7.80
2018-09-10T04:54:40.952Z,7.73
2018-09-10T04:57:09.322Z,6.87
2018-09-10T04:59:37.724Z,7.20
2018-09-10T05:02:06.103Z,7.60
2018-09-10T05:04:34.566Z,7.97
2018-09-10T05:07:04.315Z,7.40
2018-09-10T05:09:32.711Z,7.33
2018-09-10T05:12:01.094Z,6.47
2018-09-10T05:14:29.528Z,7.70
2018-09-10T05:16:57.894Z,6.93
2018-09-10T05:19:26.307Z,7.03
2018-09-10T05:21:54.720Z,6.93
2018-09-10T05:24:23.133Z,6.30
2018-09-10T05:26:51.506Z,6.90
2018-09-10T05:29:19.900Z,6.40
2018-09-10T05:31:48.269Z,6.23
2018-09-10T05:34:16.653Z,6.20
2018-09-10T05:36:45.047Z,7.40
2018-09-10T05:39:13.978Z,6.50
2018-09-10T05:41:42.413Z,6.20
2018-09-10T05:44:10.781Z,6.30
2018-09-10T05:46:39.155Z,6.33
2018-09-10T05:49:07.566Z,7.83
2018-09-10T05:51:35.943Z,6.40
2018-09-10T05:54:04.340Z,6.97
2018-09-10T05:56:32.706Z,7.53
2018-09-10T05:59:01.090Z,8.10
2018-09-10T06:01:29.459Z,6.70
2018-09-10T06:03:57.851Z,7.33
2018-09-10T06:06:26.219Z,7.20
2018-09-10T06:08:54.616Z,6.80
2018-09-10T06:11:22.991Z,6.27
2018-09-10T06:13:51.385Z,7.17
2018-09-10T06:16:19.751Z,5.60
2018-09-10T06:18:48.389Z,6.27
2018-09-10T06:21:16.775Z,7.20
2018-09-10T06:23:45.150Z,5.87
2018-09-10T06:26:13.783Z,5.73
2018-09-10T06:28:42.195Z,5.50
2018-09-10T06:31:10.591Z,5.13
2018-09-10T06:33:38.963Z,5.23
2018-09-10T06:36:07.359Z,5.27
2018-09-10T06:38:35.983Z,7.47
2018-09-10T06:41:04.382Z,6.30
2018-09-10T06:43:32.754Z,6.83
2018-09-10T06:46:01.205Z,6.40
2018-09-10T06:48:33.808Z,6.70
2018-09-10T06:51:02.531Z,6.30
2018-09-10T06:53:30.930Z,3.87
2018-09-10T06:55:59.318Z,3.10
2018-09-10T06:58:27.695Z,4.00
2018-09-10T07:00:56.093Z,3.70
2018-09-10T07:03:24.461Z,3.80
2018-09-10T07:05:52.854Z,3.43
2018-09-10T07:08:21.236Z,3.73
2018-09-10T07:10:49.675Z,3.60
2018-09-10T07:13:18.038Z,3.73
2018-09-10T07:15:46.445Z,3.10
2018-09-10T07:18:14.807Z,3.30
2018-09-10T07:20:43.206Z,4.17
2018-09-10T07:23:11.603Z,3.00
2018-09-10T07:25:39.991Z,2.73
2018-09-10T07:28:08.350Z,3.20
2018-09-10T07:30:36.891Z,3.43
2018-09-10T07:33:05.270Z,3.47
2018-09-10T07:35:33.655Z,4.03
2018-09-10T07:38:02.253Z,3.60
2018-09-10T07:40:30.651Z,3.20
2018-09-10T07:42:59.064Z,2.83
2018-09-10T07:45:27.451Z,3.10
2018-09-10T07:47:55.814Z,3.30
2018-09-10T07:50:24.286Z,2.60
2018-09-10T07:52:52.735Z,3.03
2018-09-10T07:55:21.123Z,2.97
2018-09-10T07:57:49.533Z,3.03
2018-09-10T08:00:17.925Z,3.20
2018-09-10T08:02:46.402Z,2.80
2018-09-10T08:05:14.807Z,2.97
2018-09-10T08:07:43.165Z,3.20
2018-09-10T08:10:11.550Z,2.47
2018-09-10T08:12:39.920Z,2.77
2018-09-10T08:15:08.317Z,2.97
2018-09-10T08:17:36.685Z,2.60
2018-09-10T08:20:05.328Z,2.50
2018-09-10T08:22:33.737Z,2.77
2018-09-10T08:25:02.133Z,2.40
2018-09-10T08:27:30.512Z,2.73
2018-09-10T08:29:58.878Z,3.50
2018-09-10T08:32:27.253Z,2.80
2018-09-10T08:34:55.650Z,2.20
2018-09-10T08:37:24.034Z,2.90
2018-09-10T08:39:52.403Z,2.13
2018-09-10T08:42:20.791Z,2.47
2018-09-10T08:44:49.157Z,2.30
2018-09-10T08:47:17.544Z,2.40
2018-09-10T08:49:45.998Z,2.33
2018-09-10T08:52:14.395Z,1.80
2018-09-10T08:54:42.983Z,2.67
2018-09-10T08:57:11.214Z,2.40
2018-09-10T08:59:39.570Z,2.40
2018-09-10T09:02:08.002Z,3.07
2018-09-10T09:04:36.362Z,2.07
2018-09-10T09:07:04.746Z,2.40
2018-09-10T09:09:33.138Z,2.40
2018-09-10T09:12:01.530Z,2.30
2018-09-10T09:14:29.975Z,1.83
2018-09-10T09:16:58.359Z,1.63
2018-09-10T09:19:26.724Z,2.30
2018-09-10T09:21:55.133Z,2.17
2018-09-10T09:24:23.503Z,1.90
2018-09-10T09:26:51.890Z,2.50
2018-09-10T09:29:20.288Z,1.90
2018-09-10T09:31:48.679Z,2.50
2018-09-10T09:34:17.046Z,2.50
2018-09-10T09:36:50.883Z,3.00
2018-09-10T09:39:24.554Z,2.40
2018-09-10T09:41:58.394Z,2.40
2018-09-10T09:44:32.126Z,2.20
2018-09-10T09:47:00.551Z,2.20
2018-09-10T09:49:28.965Z,2.17
2018-09-10T09:51:57.653Z,2.57
2018-09-10T09:54:26.014Z,2.33
2018-09-10T09:56:54.406Z,2.27
2018-09-10T09:59:22.858Z,2.00
2018-09-10T10:01:57.285Z,2.30
2018-09-10T10:04:25.839Z,2.03
2018-09-10T10:06:54.230Z,2.30
2018-09-10T10:09:22.598Z,2.17
2018-09-10T10:11:51.010Z,2.47
2018-09-10T10:14:19.374Z,2.60
2018-09-10T10:16:47.762Z,2.20
2018-09-10T10:19:16.126Z,1.63
2018-09-10T10:21:44.538Z,2.40
2018-09-10T10:24:12.907Z,2.10
2018-09-10T10:26:41.320Z,2.13
2018-09-10T10:29:09.682Z,2.27
2018-09-10T10:31:38.072Z,1.93
2018-09-10T10:34:06.519Z,2.10
2018-09-10T10:36:34.878Z,2.57
2018-09-10T10:39:04.173Z,1.90
2018-09-10T10:41:32.543Z,2.97
2018-09-10T10:44:00.935Z,2.13
2018-09-10T10:46:29.449Z,1.90
2018-09-10T10:48:57.840Z,1.80
2018-09-10T10:51:26.201Z,2.30
2018-09-10T10:53:54.607Z,2.73
2018-09-10T10:56:23.054Z,2.30
2018-09-10T10:58:51.442Z,2.50
2018-09-10T11:01:19.813Z,2.20
2018-09-10T11:03:48.207Z,1.80
2018-09-10T11:06:16.572Z,1.60
2018-09-10T11:08:45.127Z,1.97
2018-09-10T11:11:13.498Z,1.80
2018-09-10T11:13:41.895Z,1.63
2018-09-10T11:16:10.258Z,2.20
2018-09-10T11:18:38.690Z,2.07
2018-09-10T11:21:07.061Z,1.70
2018-09-10T11:23:35.482Z,2.00
2018-09-10T11:26:03.847Z,2.00
2018-09-10T11:28:32.258Z,2.07
2018-09-10T11:31:00.617Z,1.97
2018-09-10T11:33:29.004Z,2.00
2018-09-10T11:35:57.398Z,2.30
2018-09-10T11:38:25.797Z,2.60
2018-09-10T11:40:54.164Z,1.83
2018-09-10T11:43:22.721Z,1.80
2018-09-10T11:45:51.262Z,2.23
2018-09-10T11:48:19.647Z,2.60
2018-09-10T11:50:48.011Z,1.73
2018-09-10T11:53:16.395Z,1.90
2018-09-10T11:55:44.825Z,2.20
2018-09-10T11:58:13.182Z,1.67
2018-09-10T12:00:41.547Z,2.10
2018-09-10T12:03:09.930Z,1.90
2018-09-10T12:05:38.311Z,2.07
2018-09-10T12:08:06.699Z,2.60
2018-09-10T12:10:35.078Z,1.97
2018-09-10T12:13:03.464Z,1.80
2018-09-10T12:15:31.935Z,2.10
2018-09-10T12:18:00.317Z,2.40
2018-09-10T12:20:28.678Z,2.30
2018-09-10T12:22:57.087Z,2.20
2018-09-10T12:25:25.471Z,2.70
2018-09-10T12:27:53.838Z,2.00
2018-09-10T12:30:22.235Z,1.90
2018-09-10T12:32:50.600Z,2.13
2018-09-10T12:35:19.199Z,1.90
2018-09-10T12:37:47.579Z,2.10
2018-09-10T12:40:16.002Z,2.40
2018-09-10T12:42:44.366Z,2.20
2018-09-10T12:45:12.763Z,1.97
2018-09-10T12:47:41.135Z,1.83
2018-09-10T12:50:09.534Z,2.00
2018-09-10T12:52:37.930Z,2.53
2018-09-10T12:55:06.601Z,2.40
2018-09-10T12:57:34.961Z,1.63
2018-09-10T13:00:03.380Z,2.17
2018-09-10T13:02:31.754Z,2.10
2018-09-10T13:05:00.151Z,2.20
2018-09-10T13:07:28.557Z,2.33
2018-09-10T13:09:56.951Z,2.20
2018-09-10T13:12:25.319Z,2.53
2018-09-10T13:14:53.740Z,2.10
2018-09-10T13:17:22.112Z,2.00
2018-09-10T13:19:50.510Z,2.33
2018-09-10T13:22:18.909Z,2.37
2018-09-10T13:24:47.302Z,2.33
2018-09-10T13:27:15.670Z,2.00
2018-09-10T13:29:44.126Z,2.40
2018-09-10T13:32:12.451Z,2.23
2018-09-10T13:34:40.851Z,2.40
2018-09-10T13:37:09.227Z,2.30
2018-09-10T13:39:37.628Z,2.03
2018-09-10T13:42:06.003Z,1.90
2018-09-10T13:44:34.398Z,1.67
2018-09-10T13:47:02.759Z,2.17
2018-09-10T13:49:31.154Z,2.47
2018-09-10T13:51:59.533Z,1.90
2018-09-10T13:54:27.930Z,3.27
2018-09-10T13:56:56.411Z,1.97
2018-09-10T13:59:24.808Z,2.10
2018-09-10T14:01:53.183Z,2.17
2018-09-10T14:04:21.578Z,1.97
2018-09-10T14:06:49.950Z,2.70
2018-09-10T14:09:18.338Z,2.70
2018-09-10T14:11:46.773Z,1.90
2018-09-10T14:14:15.175Z,1.90
2018-09-10T14:16:43.564Z,2.77
2018-09-10T14:19:11.958Z,2.40
2018-09-10T14:21:40.342Z,2.80
2018-09-10T14:24:08.749Z,2.60
2018-09-10T14:26:37.114Z,2.53
2018-09-10T14:29:05.490Z,2.70
2018-09-10T14:31:33.922Z,2.50
2018-09-10T14:34:02.311Z,2.47
2018-09-10T14:36:30.706Z,2.40
2018-09-10T14:38:59.078Z,2.10
2018-09-10T14:41:27.467Z,2.20
2018-09-10T14:43:55.826Z,2.30
2018-09-10T14:46:24.222Z,2.03
2018-09-10T14:48:52.594Z,2.20
2018-09-10T14:51:20.991Z,1.73
2018-09-10T14:53:49.362Z,2.13
2018-09-10T14:56:17.851Z,1.90
2018-09-10T14:58:46.290Z,2.00
2018-09-10T15:01:14.673Z,2.47
2018-09-10T15:03:43.038Z,2.27
2018-09-10T15:06:11.436Z,2.30
2018-09-10T15:08:39.804Z,2.30
2018-09-10T15:11:08.195Z,2.00
2018-09-10T15:13:36.560Z,2.13
2018-09-10T15:16:04.943Z,2.00
2018-09-10T15:18:33.465Z,2.33
2018-09-10T15:21:01.726Z,2.33
2018-09-10T15:23:30.118Z,2.83
2018-09-10T15:25:58.529Z,2.10
2018-09-10T15:28:26.894Z,2.10
2018-09-10T15:30:55.287Z,2.57
2018-09-10T15:33:23.646Z,2.63
2018-09-10T15:35:52.036Z,2.30
2018-09-10T15:38:20.398Z,2.90
2018-09-10T15:40:48.778Z,2.80
2018-09-10T15:43:17.155Z,2.13
2018-09-10T15:45:45.560Z,2.53
2018-09-10T15:48:13.931Z,2.23
2018-09-10T15:50:42.326Z,3.20
2018-09-10T15:53:10.691Z,2.60
2018-09-10T15:55:39.074Z,3.50
2018-09-10T15:58:07.429Z,2.83
2018-09-10T16:00:35.810Z,3.20
2018-09-10T16:03:04.266Z,2.90
2018-09-10T16:05:32.650Z,3.20
2018-09-10T16:08:01.030Z,3.20
2018-09-10T16:10:29.418Z,2.73
2018-09-10T16:12:57.774Z,2.47
2018-09-10T16:15:26.158Z,2.80
2018-09-10T16:17:54.522Z,2.37
2018-09-10T16:20:22.911Z,2.70
2018-09-10T16:22:51.338Z,3.47
2018-09-10T16:25:19.735Z,3.20
2018-09-10T16:27:48.123Z,2.80
2018-09-10T16:30:16.495Z,3.27
2018-09-10T16:32:44.915Z,3.57
2018-09-10T16:35:13.295Z,2.83
2018-09-10T16:37:41.690Z,3.77
2018-09-10T16:40:10.152Z,3.30
2018-09-10T16:42:38.558Z,2.70
2018-09-10T16:45:06.930Z,2.20
2018-09-10T16:47:35.319Z,2.83
2018-09-10T16:50:03.691Z,3.20
2018-09-10T16:52:32.078Z,3.43
2018-09-10T16:55:00.587Z,2.70
2018-09-10T16:57:28.865Z,3.37
2018-09-10T16:59:57.243Z,3.77
2018-09-10T17:02:25.630Z,2.93
2018-09-10T17:04:53.990Z,2.73
2018-09-10T17:07:22.382Z,3.70
2018-09-10T17:09:50.748Z,3.37
2018-09-10T17:12:19.167Z,3.40
2018-09-10T17:14:47.530Z,3.13
2018-09-10T17:17:15.929Z,3.83
2018-09-10T17:19:44.309Z,3.00
2018-09-10T17:22:12.726Z,3.30
2018-09-10T17:24:41.092Z,3.27
2018-09-10T17:27:09.569Z,3.57
2018-09-10T17:29:37.964Z,3.70
2018-09-10T17:32:06.374Z,3.07
2018-09-10T17:34:34.741Z,3.70
2018-09-10T17:37:03.126Z,3.20
2018-09-10T17:39:31.487Z,3.90
2018-09-10T17:41:59.873Z,3.57
2018-09-10T17:44:28.598Z,3.03
2018-09-10T17:46:57.224Z,3.47
2018-09-10T17:49:25.567Z,3.33
2018-09-10T17:51:54.022Z,3.30
2018-09-10T17:54:22.400Z,3.73
2018-09-10T17:56:50.789Z,3.57
2018-09-10T17:59:19.152Z,2.83
2018-09-10T18:01:47.545Z,2.73
2018-09-10T18:04:15.909Z,2.73
2018-09-10T18:06:44.318Z,3.33
2018-09-10T18:09:13.362Z,3.13
2018-09-10T18:11:42.269Z,2.87
2018-09-10T18:14:10.651Z,3.63
2018-09-10T18:16:39.037Z,2.90
2018-09-10T18:19:07.398Z,2.60
2018-09-10T18:21:35.933Z,2.90
2018-09-10T18:24:04.860Z,3.00
2018-09-10T18:26:33.280Z,3.93
2018-09-10T18:29:01.853Z,3.93
2018-09-10T18:31:30.227Z,3.20
2018-09-10T18:33:58.613Z,2.97
2018-09-10T18:36:26.969Z,3.53
2018-09-10T18:38:55.346Z,3.40
2018-09-10T18:41:23.707Z,3.53
2018-09-10T18:43:52.089Z,4.53
2018-09-10T18:46:20.445Z,6.37
2018-09-10T18:48:48.879Z,5.03
2018-09-10T18:51:17.223Z,5.47
2018-09-10T18:53:45.605Z,4.93
2018-09-10T18:56:13.968Z,6.10
2018-09-10T18:58:42.371Z,49.93
2018-09-10T19:01:10.840Z,20.57
2018-09-10T19:03:39.225Z,25.70
2018-09-10T19:06:07.590Z,6.87
2018-09-10T19:08:35.981Z,4.43
2018-09-10T19:11:04.352Z,4.03
2018-09-10T19:13:32.751Z,5.00
2018-09-10T19:16:01.123Z,4.20
2018-09-10T19:18:40.907Z,3.47
2018-09-10T19:21:09.661Z,2.67
2018-09-10T19:23:38.786Z,2.93
2018-09-10T19:26:07.777Z,4.17
2018-09-10T19:28:36.201Z,5.20
2018-09-10T19:31:04.570Z,4.63
2018-09-10T19:33:33.292Z,4.30
2018-09-10T19:36:01.659Z,4.30
2018-09-10T19:38:30.050Z,7.07
2018-09-10T19:40:58.419Z,5.80
2018-09-10T19:43:26.823Z,5.90
2018-09-10T19:45:55.187Z,5.93
2018-09-10T19:48:23.574Z,5.43
2018-09-10T19:50:52.075Z,4.53
2018-09-10T19:53:20.478Z,4.90
2018-09-10T19:55:48.848Z,4.30
2018-09-10T19:58:17.238Z,4.20
2018-09-10T20:00:45.692Z,4.17
2018-09-10T20:03:14.073Z,4.50
2018-09-10T20:05:42.546Z,4.10
2018-09-10T20:08:10.934Z,4.80
2018-09-10T20:10:39.295Z,3.60
2018-09-10T20:13:07.698Z,4.47
2018-09-10T20:15:36.075Z,5.03
2018-09-10T20:18:04.466Z,4.50
2018-09-10T20:20:32.826Z,5.03
2018-09-10T20:23:01.288Z,4.77
2018-09-10T20:25:29.649Z,4.27
2018-09-10T20:27:58.026Z,4.97
2018-09-10T20:30:26.408Z,4.40
2018-09-10T20:32:54.807Z,3.90
2018-09-10T20:35:23.174Z,5.07
2018-09-10T20:37:51.551Z,4.43
2018-09-10T20:40:19.938Z,4.60
2018-09-10T20:42:48.310Z,5.30
2018-09-10T20:45:16.700Z,6.17
2018-09-10T20:47:45.063Z,4.93
2018-09-10T20:50:13.447Z,5.60
2018-09-10T20:52:41.843Z,5.47
2018-09-10T20:55:09.850Z,5.13
2018-09-10T20:57:38.209Z,6.23
2018-09-10T21:00:06.602Z,5.50
2018-09-10T21:02:34.973Z,5.57
2018-09-10T21:05:03.357Z,5.10
2018-09-10T21:07:31.783Z,5.30
2018-09-10T21:10:00.136Z,4.77
2018-09-10T21:12:28.502Z,5.13
2018-09-10T21:14:56.899Z,4.50
2018-09-10T21:17:25.257Z,4.80
2018-09-10T21:19:53.647Z,5.40
2018-09-10T21:22:22.036Z,5.97
2018-09-10T21:24:50.462Z,5.17
2018-09-10T21:27:18.826Z,5.20
2018-09-10T21:29:47.210Z,5.47
2018-09-10T21:32:15.575Z,5.50
2018-09-10T21:34:43.978Z,5.00
2018-09-10T21:37:12.365Z,6.37
2018-09-10T21:39:40.880Z,5.93
2018-09-10T21:42:09.253Z,5.70
2018-09-10T21:44:37.644Z,6.70
2018-09-10T21:47:06.356Z,4.40
2018-09-10T21:49:34.646Z,5.43
2018-09-10T21:52:03.019Z,4.70
2018-09-10T21:54:31.501Z,6.40
2018-09-10T21:56:59.872Z,5.00
2018-09-10T21:59:28.268Z,6.00
2018-09-10T22:01:56.625Z,5.90
2018-09-10T22:04:25.018Z,5.60
2018-09-10T22:06:53.424Z,4.47
2018-09-10T22:09:21.814Z,5.67
2018-09-10T22:12:05.610Z,5.30
2018-09-10T22:14:34.686Z,6.17
2018-09-10T22:17:03.438Z,4.97
2018-09-10T22:19:31.823Z,5.57
2018-09-10T22:22:00.223Z,5.93
2018-09-10T22:24:28.619Z,6.03
2018-09-10T22:26:56.981Z,5.97
2018-09-10T22:29:25.366Z,5.60
2018-09-10T22:31:53.746Z,5.67
2018-09-10T22:34:22.126Z,5.90
2018-09-10T22:36:50.481Z,5.50
2018-09-10T22:39:18.866Z,4.60
2018-09-10T22:41:47.226Z,5.47
2018-09-10T22:44:15.672Z,6.50
2018-09-10T22:46:43.998Z,5.80
2018-09-10T22:49:12.355Z,5.60
2018-09-10T22:51:40.737Z,5.40
2018-09-10T22:54:09.278Z,6.53
2018-09-10T22:56:37.670Z,6.67
2018-09-10T22:59:06.218Z,7.47
2018-09-10T23:01:34.597Z,6.00
2018-09-10T23:04:02.998Z,6.27
2018-09-10T23:06:31.391Z,5.50
2018-09-10T23:08:59.762Z,6.93
2018-09-10T23:11:28.184Z,6.03
2018-09-10T23:13:56.550Z,5.67
2018-09-10T23:16:24.981Z,5.53
2018-09-10T23:18:53.333Z,5.97
2018-09-10T23:21:21.743Z,5.87
2018-09-10T23:23:50.113Z,6.40
2018-09-10T23:26:18.494Z,5.80
2018-09-10T23:28:46.854Z,5.67
2018-09-10T23:31:15.277Z,6.20
2018-09-10T23:33:43.661Z,5.63
2018-09-10T23:36:12.046Z,6.33
2018-09-10T23:38:40.418Z,5.90
2018-09-10T23:41:08.811Z,5.13
2018-09-10T23:43:37.190Z,6.33
2018-09-10T23:46:05.761Z,5.43
2018-09-10T23:48:34.122Z,4.70
2018-09-10T23:51:02.511Z,6.70
2018-09-10T23:53:30.878Z,5.50
2018-09-10T23:55:59.264Z,5.83
2018-09-10T23:58:27.636Z,5.20
